Terminal Aerodrome Forecast
Issued by NWS Mt. Holly, NJ

Home | Current Version | Previous Version | Text Only | Print | Product List | Glossary On
Versions: 1 2 3 4 5 6 7 8 9 10 11 12 13 14 15 16 17
396
FTUS41 KPHI 221739
TAFABE
TAF
KABE 221739Z 2218/2318 12004KT 4SM -SHRA BR OVC025
      TEMPO 2218/2222 2SM SHRA OVC015
     FM222200 VRB03KT 4SM BR OVC015
     FM230400 VRB03KT 2SM BR OVC008
     FM231100 31006KT P6SM BKN015
     FM231400 33010KT P6SM SCT045=

USA.gov is the U.S. government's official web portal to all federal, state and local government web resources and services.